sensor_id;sensor_type;location;lat;lon;timestamp;temperature;humidity
21282;DHT22;10800;53.096;18.328;2023-05-29T00:00:09;10.10;99.90
21282;DHT22;10800;53.096;18.328;2023-05-29T00:05:18;10.10;99.90
21282;DHT22;10800;53.096;18.328;2023-05-29T00:10:23;9.90;99.90
21282;DHT22;10800;53.096;18.328;2023-05-29T00:15:29;9.80;99.90
21282;DHT22;10800;53.096;18.328;2023-05-29T00:20:34;9.70;99.90
21282;DHT22;10800;53.096;18.328;2023-05-29T00:25:40;9.60;99.90
21282;DHT22;10800;53.096;18.328;2023-05-29T00:30:45;9.60;99.90
21282;DHT22;10800;53.096;18.328;2023-05-29T00:35:51;9.60;99.90
21282;DHT22;10800;53.096;18.328;2023-05-29T00:40:57;9.50;99.90
21282;DHT22;10800;53.096;18.328;2023-05-29T00:46:03;9.30;99.90
21282;DHT22;10800;53.096;18.328;2023-05-29T00:51:10;9.20;99.90
21282;DHT22;10800;53.096;18.328;2023-05-29T00:56:17;9.10;99.90
21282;DHT22;10800;53.096;18.328;2023-05-29T01:01:25;9.00;99.90
21282;DHT22;10800;53.096;18.328;2023-05-29T01:06:31;8.90;99.90
21282;DHT22;10800;53.096;18.328;2023-05-29T01:16:55;8.80;99.90
21282;DHT22;10800;53.096;18.328;2023-05-29T01:22:34;8.70;99.90
21282;DHT22;10800;53.096;18.328;2023-05-29T01:27:33;8.60;99.90
21282;DHT22;10800;53.096;18.328;2023-05-29T01:32:40;8.60;99.90
21282;DHT22;10800;53.096;18.328;2023-05-29T01:37:47;8.50;99.90
21282;DHT22;10800;53.096;18.328;2023-05-29T01:42:53;8.50;99.90
21282;DHT22;10800;53.096;18.328;2023-05-29T01:47:58;8.50;99.90
21282;DHT22;10800;53.096;18.328;2023-05-29T01:53:04;8.40;99.90
21282;DHT22;10800;53.096;18.328;2023-05-29T01:58:11;8.40;99.90
21282;DHT22;10800;53.096;18.328;2023-05-29T02:03:20;8.40;99.90
21282;DHT22;10800;53.096;18.328;2023-05-29T02:08:25;8.30;99.90
21282;DHT22;10800;53.096;18.328;2023-05-29T02:13:32;8.30;99.90
21282;DHT22;10800;53.096;18.328;2023-05-29T02:18:37;8.20;99.90
21282;DHT22;10800;53.096;18.328;2023-05-29T02:23:43;8.20;99.90
21282;DHT22;10800;53.096;18.328;2023-05-29T02:28:49;8.30;99.90
21282;DHT22;10800;53.096;18.328;2023-05-29T02:33:54;8.30;99.90
21282;DHT22;10800;53.096;18.328;2023-05-29T02:39:00;8.30;99.90
21282;DHT22;10800;53.096;18.328;2023-05-29T02:44:06;8.30;99.90
21282;DHT22;10800;53.096;18.328;2023-05-29T02:49:11;8.20;99.90
21282;DHT22;10800;53.096;18.328;2023-05-29T02:54:18;8.10;99.90
21282;DHT22;10800;53.096;18.328;2023-05-29T02:59:23;8.10;99.90
21282;DHT22;10800;53.096;18.328;2023-05-29T03:04:28;8.10;99.90
21282;DHT22;10800;53.096;18.328;2023-05-29T03:09:34;8.10;99.90
21282;DHT22;10800;53.096;18.328;2023-05-29T03:14:39;8.20;99.90
21282;DHT22;10800;53.096;18.328;2023-05-29T03:19:45;8.20;99.90
21282;DHT22;10800;53.096;18.328;2023-05-29T03:24:50;8.30;99.90
21282;DHT22;10800;53.096;18.328;2023-05-29T03:29:55;8.30;99.90
21282;DHT22;10800;53.096;18.328;2023-05-29T03:35:02;8.30;99.90
21282;DHT22;10800;53.096;18.328;2023-05-29T03:40:08;8.30;99.90
21282;DHT22;10800;53.096;18.328;2023-05-29T03:45:16;8.40;99.90
21282;DHT22;10800;53.096;18.328;2023-05-29T03:50:22;8.50;99.90
21282;DHT22;10800;53.096;18.328;2023-05-29T03:55:27;8.70;99.90
21282;DHT22;10800;53.096;18.328;2023-05-29T04:00:32;8.70;99.90
21282;DHT22;10800;53.096;18.328;2023-05-29T04:05:37;8.90;99.90
21282;DHT22;10800;53.096;18.328;2023-05-29T04:10:42;9.00;99.90
21282;DHT22;10800;53.096;18.328;2023-05-29T04:15:49;9.20;99.90
21282;DHT22;10800;53.096;18.328;2023-05-29T04:20:56;9.40;99.90
21282;DHT22;10800;53.096;18.328;2023-05-29T04:26:02;9.60;99.90
21282;DHT22;10800;53.096;18.328;2023-05-29T04:31:09;9.80;99.90
21282;DHT22;10800;53.096;18.328;2023-05-29T04:36:18;10.00;99.90
21282;DHT22;10800;53.096;18.328;2023-05-29T04:41:28;10.20;99.90
21282;DHT22;10800;53.096;18.328;2023-05-29T04:46:32;10.40;99.90
21282;DHT22;10800;53.096;18.328;2023-05-29T04:51:40;10.70;99.90
21282;DHT22;10800;53.096;18.328;2023-05-29T04:56:45;11.10;99.90
21282;DHT22;10800;53.096;18.328;2023-05-29T05:01:51;11.40;99.90
21282;DHT22;10800;53.096;18.328;2023-05-29T05:06:57;11.70;99.90
21282;DHT22;10800;53.096;18.328;2023-05-29T05:12:02;12.10;99.90
21282;DHT22;10800;53.096;18.328;2023-05-29T05:17:08;12.60;99.90
21282;DHT22;10800;53.096;18.328;2023-05-29T05:22:14;13.00;99.90
21282;DHT22;10800;53.096;18.328;2023-05-29T05:27:19;13.70;99.90
21282;DHT22;10800;53.096;18.328;2023-05-29T05:32:24;14.10;99.90
21282;DHT22;10800;53.096;18.328;2023-05-29T05:37:30;14.50;99.90
21282;DHT22;10800;53.096;18.328;2023-05-29T05:42:36;15.00;99.90
21282;DHT22;10800;53.096;18.328;2023-05-29T05:47:41;15.50;99.90
21282;DHT22;10800;53.096;18.328;2023-05-29T05:52:47;15.90;99.70
21282;DHT22;10800;53.096;18.328;2023-05-29T05:57:52;16.50;98.40
21282;DHT22;10800;53.096;18.328;2023-05-29T06:02:57;16.70;94.60
21282;DHT22;10800;53.096;18.328;2023-05-29T06:08:05;17.00;92.40
21282;DHT22;10800;53.096;18.328;2023-05-29T06:13:12;17.40;92.00
21282;DHT22;10800;53.096;18.328;2023-05-29T06:18:18;17.60;90.00
21282;DHT22;10800;53.096;18.328;2023-05-29T06:23:24;17.80;86.40
21282;DHT22;10800;53.096;18.328;2023-05-29T06:28:31;18.20;80.00
21282;DHT22;10800;53.096;18.328;2023-05-29T06:33:36;18.40;76.30
21282;DHT22;10800;53.096;18.328;2023-05-29T06:38:46;19.00;73.70
21282;DHT22;10800;53.096;18.328;2023-05-29T06:43:56;19.60;69.30
21282;DHT22;10800;53.096;18.328;2023-05-29T06:49:02;20.20;68.70
21282;DHT22;10800;53.096;18.328;2023-05-29T06:54:09;20.30;65.20
21282;DHT22;10800;53.096;18.328;2023-05-29T06:59:14;20.50;64.80
21282;DHT22;10800;53.096;18.328;2023-05-29T07:04:19;21.10;62.50
21282;DHT22;10800;53.096;18.328;2023-05-29T07:09:24;21.80;62.60
21282;DHT22;10800;53.096;18.328;2023-05-29T07:14:32;22.20;58.90
21282;DHT22;10800;53.096;18.328;2023-05-29T07:19:41;21.90;56.60
21282;DHT22;10800;53.096;18.328;2023-05-29T07:24:47;22.40;56.80
21282;DHT22;10800;53.096;18.328;2023-05-29T07:29:53;22.70;55.50
21282;DHT22;10800;53.096;18.328;2023-05-29T07:34:59;23.00;55.20
21282;DHT22;10800;53.096;18.328;2023-05-29T07:40:08;23.00;54.20
21282;DHT22;10800;53.096;18.328;2023-05-29T07:45:17;23.20;55.60
21282;DHT22;10800;53.096;18.328;2023-05-29T07:50:27;23.50;55.70
21282;DHT22;10800;53.096;18.328;2023-05-29T07:55:33;23.10;56.40
21282;DHT22;10800;53.096;18.328;2023-05-29T08:00:43;23.10;56.00
21282;DHT22;10800;53.096;18.328;2023-05-29T08:05:50;22.80;57.70
21282;DHT22;10800;53.096;18.328;2023-05-29T08:10:58;23.60;57.00
21282;DHT22;10800;53.096;18.328;2023-05-29T08:16:05;23.80;55.10
21282;DHT22;10800;53.096;18.328;2023-05-29T08:21:11;24.10;55.20
21282;DHT22;10800;53.096;18.328;2023-05-29T08:26:17;24.10;55.10
21282;DHT22;10800;53.096;18.328;2023-05-29T08:31:28;23.50;55.20
21282;DHT22;10800;53.096;18.328;2023-05-29T08:36:33;23.70;53.70
21282;DHT22;10800;53.096;18.328;2023-05-29T08:42:04;24.00;55.30
21282;DHT22;10800;53.096;18.328;2023-05-29T08:47:11;24.50;53.80
21282;DHT22;10800;53.096;18.328;2023-05-29T08:52:24;25.30;54.30
21282;DHT22;10800;53.096;18.328;2023-05-29T08:57:34;25.60;51.70
21282;DHT22;10800;53.096;18.328;2023-05-29T09:02:45;25.80;53.30
21282;DHT22;10800;53.096;18.328;2023-05-29T09:07:53;26.30;51.70
21282;DHT22;10800;53.096;18.328;2023-05-29T09:13:02;25.90;49.10
21282;DHT22;10800;53.096;18.328;2023-05-29T09:18:08;26.00;49.40
21282;DHT22;10800;53.096;18.328;2023-05-29T09:23:14;26.00;49.60
21282;DHT22;10800;53.096;18.328;2023-05-29T09:28:30;26.60;48.10
21282;DHT22;10800;53.096;18.328;2023-05-29T09:33:46;26.00;50.00
21282;DHT22;10800;53.096;18.328;2023-05-29T09:38:48;27.00;48.40
21282;DHT22;10800;53.096;18.328;2023-05-29T09:44:01;26.80;47.00
21282;DHT22;10800;53.096;18.328;2023-05-29T09:49:13;27.10;46.30
21282;DHT22;10800;53.096;18.328;2023-05-29T09:54:24;26.00;47.70
21282;DHT22;10800;53.096;18.328;2023-05-29T09:59:36;26.60;49.90
21282;DHT22;10800;53.096;18.328;2023-05-29T10:04:46;26.30;45.00
21282;DHT22;10800;53.096;18.328;2023-05-29T10:10:05;25.90;47.10
21282;DHT22;10800;53.096;18.328;2023-05-29T10:15:16;25.70;48.60
21282;DHT22;10800;53.096;18.328;2023-05-29T10:20:24;25.70;49.20
21282;DHT22;10800;53.096;18.328;2023-05-29T10:25:34;25.80;48.00
21282;DHT22;10800;53.096;18.328;2023-05-29T10:30:53;25.00;47.60
21282;DHT22;10800;53.096;18.328;2023-05-29T10:47:00;25.20;50.20
21282;DHT22;10800;53.096;18.328;2023-05-29T10:52:11;25.40;46.70
21282;DHT22;10800;53.096;18.328;2023-05-29T10:57:21;25.20;47.20
21282;DHT22;10800;53.096;18.328;2023-05-29T11:02:28;26.10;45.30
21282;DHT22;10800;53.096;18.328;2023-05-29T11:07:34;26.50;43.90
21282;DHT22;10800;53.096;18.328;2023-05-29T11:13:01;26.70;45.00
21282;DHT22;10800;53.096;18.328;2023-05-29T11:18:11;27.60;43.80
21282;DHT22;10800;53.096;18.328;2023-05-29T11:23:21;27.40;42.60
21282;DHT22;10800;53.096;18.328;2023-05-29T11:28:28;27.20;41.40
21282;DHT22;10800;53.096;18.328;2023-05-29T11:33:35;26.00;44.40
21282;DHT22;10800;53.096;18.328;2023-05-29T11:38:45;25.60;44.20
21282;DHT22;10800;53.096;18.328;2023-05-29T11:43:59;26.60;42.10
21282;DHT22;10800;53.096;18.328;2023-05-29T11:49:07;26.80;41.00
21282;DHT22;10800;53.096;18.328;2023-05-29T11:54:23;27.20;42.00
21282;DHT22;10800;53.096;18.328;2023-05-29T11:59:42;27.60;43.80
21282;DHT22;10800;53.096;18.328;2023-05-29T12:05:07;27.10;40.90
21282;DHT22;10800;53.096;18.328;2023-05-29T12:10:32;27.20;41.40
21282;DHT22;10800;53.096;18.328;2023-05-29T12:15:40;27.20;39.60
21282;DHT22;10800;53.096;18.328;2023-05-29T12:20:45;27.40;41.00
21282;DHT22;10800;53.096;18.328;2023-05-29T12:25:52;26.40;40.30
21282;DHT22;10800;53.096;18.328;2023-05-29T12:31:02;26.10;41.80
21282;DHT22;10800;53.096;18.328;2023-05-29T12:36:12;26.40;41.30
21282;DHT22;10800;53.096;18.328;2023-05-29T12:41:28;26.80;40.70
21282;DHT22;10800;53.096;18.328;2023-05-29T12:46:41;26.80;40.70
21282;DHT22;10800;53.096;18.328;2023-05-29T12:51:48;25.80;41.70
21282;DHT22;10800;53.096;18.328;2023-05-29T12:56:53;25.70;43.20
21282;DHT22;10800;53.096;18.328;2023-05-29T13:02:00;25.70;40.10
21282;DHT22;10800;53.096;18.328;2023-05-29T13:07:07;26.00;41.00
21282;DHT22;10800;53.096;18.328;2023-05-29T13:12:12;25.70;38.20
21282;DHT22;10800;53.096;18.328;2023-05-29T13:17:18;25.80;41.50
21282;DHT22;10800;53.096;18.328;2023-05-29T13:22:26;25.90;40.10
21282;DHT22;10800;53.096;18.328;2023-05-29T13:27:37;25.80;41.30
21282;DHT22;10800;53.096;18.328;2023-05-29T13:32:43;25.20;40.00
21282;DHT22;10800;53.096;18.328;2023-05-29T13:37:50;24.90;40.10
21282;DHT22;10800;53.096;18.328;2023-05-29T13:42:58;25.30;40.20
21282;DHT22;10800;53.096;18.328;2023-05-29T13:48:04;25.50;41.10
21282;DHT22;10800;53.096;18.328;2023-05-29T13:53:11;25.10;38.20
21282;DHT22;10800;53.096;18.328;2023-05-29T13:58:17;24.70;39.10
21282;DHT22;10800;53.096;18.328;2023-05-29T14:03:26;24.60;39.20
21282;DHT22;10800;53.096;18.328;2023-05-29T14:08:41;24.40;40.40
21282;DHT22;10800;53.096;18.328;2023-05-29T14:13:46;24.60;40.10
21282;DHT22;10800;53.096;18.328;2023-05-29T14:18:53;24.30;42.40
21282;DHT22;10800;53.096;18.328;2023-05-29T14:24:03;23.80;40.10
21282;DHT22;10800;53.096;18.328;2023-05-29T14:29:08;23.40;42.30
21282;DHT22;10800;53.096;18.328;2023-05-29T14:34:21;23.60;42.20
21282;DHT22;10800;53.096;18.328;2023-05-29T14:39:27;23.80;41.70
21282;DHT22;10800;53.096;18.328;2023-05-29T14:44:34;23.80;40.50
21282;DHT22;10800;53.096;18.328;2023-05-29T14:49:39;23.90;42.40
21282;DHT22;10800;53.096;18.328;2023-05-29T14:54:45;24.00;41.00
21282;DHT22;10800;53.096;18.328;2023-05-29T14:59:51;23.90;40.50
21282;DHT22;10800;53.096;18.328;2023-05-29T15:04:57;23.90;42.90
21282;DHT22;10800;53.096;18.328;2023-05-29T15:10:03;24.00;40.40
21282;DHT22;10800;53.096;18.328;2023-05-29T15:15:09;23.70;41.20
21282;DHT22;10800;53.096;18.328;2023-05-29T15:20:17;23.50;40.90
21282;DHT22;10800;53.096;18.328;2023-05-29T15:25:24;23.30;42.00
21282;DHT22;10800;53.096;18.328;2023-05-29T15:30:31;23.50;41.10
21282;DHT22;10800;53.096;18.328;2023-05-29T15:35:38;23.50;41.60
21282;DHT22;10800;53.096;18.328;2023-05-29T15:40:46;23.60;42.60
21282;DHT22;10800;53.096;18.328;2023-05-29T15:45:52;23.30;41.50
21282;DHT22;10800;53.096;18.328;2023-05-29T15:50:57;23.10;42.10
21282;DHT22;10800;53.096;18.328;2023-05-29T15:56:03;22.90;43.20
21282;DHT22;10800;53.096;18.328;2023-05-29T16:01:09;22.60;43.30
21282;DHT22;10800;53.096;18.328;2023-05-29T16:06:15;22.40;43.00
21282;DHT22;10800;53.096;18.328;2023-05-29T16:11:20;22.30;43.10
21282;DHT22;10800;53.096;18.328;2023-05-29T16:16:25;22.20;44.10
21282;DHT22;10800;53.096;18.328;2023-05-29T16:21:33;22.30;44.10
21282;DHT22;10800;53.096;18.328;2023-05-29T16:26:43;22.20;44.10
21282;DHT22;10800;53.096;18.328;2023-05-29T16:31:49;22.10;44.80
21282;DHT22;10800;53.096;18.328;2023-05-29T16:36:57;22.00;45.20
21282;DHT22;10800;53.096;18.328;2023-05-29T16:42:02;21.60;44.60
21282;DHT22;10800;53.096;18.328;2023-05-29T16:47:08;21.40;45.80
21282;DHT22;10800;53.096;18.328;2023-05-29T16:52:14;21.30;44.90
21282;DHT22;10800;53.096;18.328;2023-05-29T16:57:22;21.30;45.20
21282;DHT22;10800;53.096;18.328;2023-05-29T17:02:27;21.20;44.80
21282;DHT22;10800;53.096;18.328;2023-05-29T17:07:32;21.20;45.10
21282;DHT22;10800;53.096;18.328;2023-05-29T17:12:38;21.10;44.90
21282;DHT22;10800;53.096;18.328;2023-05-29T17:17:43;20.80;45.00
21282;DHT22;10800;53.096;18.328;2023-05-29T17:22:54;20.70;45.90
21282;DHT22;10800;53.096;18.328;2023-05-29T17:27:59;20.60;46.60
21282;DHT22;10800;53.096;18.328;2023-05-29T17:33:05;20.50;45.90
21282;DHT22;10800;53.096;18.328;2023-05-29T17:38:10;20.40;46.20
21282;DHT22;10800;53.096;18.328;2023-05-29T17:43:15;20.30;46.20
21282;DHT22;10800;53.096;18.328;2023-05-29T17:48:21;20.20;47.50
21282;DHT22;10800;53.096;18.328;2023-05-29T17:53:28;20.10;47.40
21282;DHT22;10800;53.096;18.328;2023-05-29T17:58:35;20.10;48.00
21282;DHT22;10800;53.096;18.328;2023-05-29T18:03:47;20.00;49.10
21282;DHT22;10800;53.096;18.328;2023-05-29T18:08:52;20.00;50.10
21282;DHT22;10800;53.096;18.328;2023-05-29T18:13:57;19.80;49.50
21282;DHT22;10800;53.096;18.328;2023-05-29T18:19:03;19.60;50.70
21282;DHT22;10800;53.096;18.328;2023-05-29T18:24:19;19.50;50.90
21282;DHT22;10800;53.096;18.328;2023-05-29T18:29:25;19.40;50.50
21282;DHT22;10800;53.096;18.328;2023-05-29T18:34:37;19.30;51.20
21282;DHT22;10800;53.096;18.328;2023-05-29T18:39:43;19.20;51.60
21282;DHT22;10800;53.096;18.328;2023-05-29T18:44:48;19.00;52.30
21282;DHT22;10800;53.096;18.328;2023-05-29T18:49:54;18.80;53.30
21282;DHT22;10800;53.096;18.328;2023-05-29T18:55:01;18.50;54.70
21282;DHT22;10800;53.096;18.328;2023-05-29T19:00:08;18.30;54.50
21282;DHT22;10800;53.096;18.328;2023-05-29T19:05:14;18.10;55.00
21282;DHT22;10800;53.096;18.328;2023-05-29T19:10:21;17.90;55.30
21282;DHT22;10800;53.096;18.328;2023-05-29T19:15:26;17.70;55.90
21282;DHT22;10800;53.096;18.328;2023-05-29T19:20:32;17.60;55.60
21282;DHT22;10800;53.096;18.328;2023-05-29T19:25:38;17.50;55.50
21282;DHT22;10800;53.096;18.328;2023-05-29T19:30:44;17.50;54.50
21282;DHT22;10800;53.096;18.328;2023-05-29T19:35:53;17.40;56.30
21282;DHT22;10800;53.096;18.328;2023-05-29T19:40:58;17.40;59.20
21282;DHT22;10800;53.096;18.328;2023-05-29T19:46:03;17.20;60.70
21282;DHT22;10800;53.096;18.328;2023-05-29T19:51:10;17.10;62.20
21282;DHT22;10800;53.096;18.328;2023-05-29T19:56:16;16.90;63.70
21282;DHT22;10800;53.096;18.328;2023-05-29T20:01:22;16.80;64.70
21282;DHT22;10800;53.096;18.328;2023-05-29T20:06:31;16.70;65.50
21282;DHT22;10800;53.096;18.328;2023-05-29T20:11:37;16.60;66.90
21282;DHT22;10800;53.096;18.328;2023-05-29T20:16:45;16.50;66.50
21282;DHT22;10800;53.096;18.328;2023-05-29T20:21:50;16.30;67.20
21282;DHT22;10800;53.096;18.328;2023-05-29T20:26:56;16.20;68.00
21282;DHT22;10800;53.096;18.328;2023-05-29T20:32:03;16.00;69.10
21282;DHT22;10800;53.096;18.328;2023-05-29T20:37:09;15.90;69.30
21282;DHT22;10800;53.096;18.328;2023-05-29T20:42:16;15.80;70.30
21282;DHT22;10800;53.096;18.328;2023-05-29T20:47:23;15.60;71.80
21282;DHT22;10800;53.096;18.328;2023-05-29T20:52:30;15.40;72.60
21282;DHT22;10800;53.096;18.328;2023-05-29T20:57:39;15.30;73.00
21282;DHT22;10800;53.096;18.328;2023-05-29T21:02:44;15.20;74.40
21282;DHT22;10800;53.096;18.328;2023-05-29T21:07:59;15.00;75.70
21282;DHT22;10800;53.096;18.328;2023-05-29T21:13:14;14.90;76.40
21282;DHT22;10800;53.096;18.328;2023-05-29T21:18:21;14.80;76.90
21282;DHT22;10800;53.096;18.328;2023-05-29T21:23:46;14.80;76.90
21282;DHT22;10800;53.096;18.328;2023-05-29T21:28:53;14.70;78.10
21282;DHT22;10800;53.096;18.328;2023-05-29T21:33:58;14.60;77.60
21282;DHT22;10800;53.096;18.328;2023-05-29T21:39:04;14.60;78.50
21282;DHT22;10800;53.096;18.328;2023-05-29T21:44:12;14.50;78.70
21282;DHT22;10800;53.096;18.328;2023-05-29T21:49:17;14.40;78.60
21282;DHT22;10800;53.096;18.328;2023-05-29T21:54:23;14.30;78.40
21282;DHT22;10800;53.096;18.328;2023-05-29T21:59:30;14.20;79.00
21282;DHT22;10800;53.096;18.328;2023-05-29T22:04:37;14.20;78.60
21282;DHT22;10800;53.096;18.328;2023-05-29T22:09:43;14.10;79.20
21282;DHT22;10800;53.096;18.328;2023-05-29T22:14:53;14.10;79.70
21282;DHT22;10800;53.096;18.328;2023-05-29T22:20:00;14.10;80.50
21282;DHT22;10800;53.096;18.328;2023-05-29T22:25:09;14.00;81.40
21282;DHT22;10800;53.096;18.328;2023-05-29T22:30:20;14.00;81.60
21282;DHT22;10800;53.096;18.328;2023-05-29T22:35:28;14.00;82.30
21282;DHT22;10800;53.096;18.328;2023-05-29T22:40:34;13.90;82.70
21282;DHT22;10800;53.096;18.328;2023-05-29T22:45:41;13.80;83.50
21282;DHT22;10800;53.096;18.328;2023-05-29T22:50:48;13.60;84.40
21282;DHT22;10800;53.096;18.328;2023-05-29T22:55:54;13.50;86.10
21282;DHT22;10800;53.096;18.328;2023-05-29T23:01:02;13.30;86.60
21282;DHT22;10800;53.096;18.328;2023-05-29T23:06:11;13.20;87.30
21282;DHT22;10800;53.096;18.328;2023-05-29T23:11:18;13.20;88.70
21282;DHT22;10800;53.096;18.328;2023-05-29T23:16:24;13.10;89.70
21282;DHT22;10800;53.096;18.328;2023-05-29T23:21:50;13.00;90.20
21282;DHT22;10800;53.096;18.328;2023-05-29T23:26:59;12.90;91.10
21282;DHT22;10800;53.096;18.328;2023-05-29T23:32:05;12.80;92.30
21282;DHT22;10800;53.096;18.328;2023-05-29T23:37:14;12.60;94.00
21282;DHT22;10800;53.096;18.328;2023-05-29T23:42:21;12.40;94.80
21282;DHT22;10800;53.096;18.328;2023-05-29T23:47:26;12.40;95.50
21282;DHT22;10800;53.096;18.328;2023-05-29T23:52:32;12.30;98.90
21282;DHT22;10800;53.096;18.328;2023-05-29T23:57:37;12.20;99.90
